Odin — OXIM2 — position and weather

sailwx.info

Track history (hours):
 
Tides and Currents Weather Stations Pressure Air Temp Water Temp Dewpoint Dewpoint Depression Visibility Wind Speed Wind Dir Waves Ship Positions

Odin

Last reported at 2018-Aug-07 05:11 UTC. Time now 2018-Aug-16 08:46 UTC.
Position N 57°08' E 008°36'.
Warning: this ship's position is 9 days out of date.

Length 28 m; draft 3 m.

Type: Tug. MMSI: 219022300.

Date/timePositionNaut miles runAvg speedWind from/ knotsBaromVisibWave heightAir tempDewpointWater temp
2018-Aug-07 05:11N 57°08' E 008°36'66 5.3
2018-Aug-06 16:43N 57°54' E 007°08'1 5.6
2018-Aug-06 16:30N 57°54' E 007°06'3 5.7
2018-Aug-06 16:00N 57°56' E 007°02'3 5.5
2018-Aug-06 15:30N 57°58' E 006°58'2 4.7
2018-Aug-06 15:00N 58°00' E 006°55'2 4.9
2018-Aug-06 14:30N 58°02' E 006°58'1 2.2
2018-Aug-06 14:00N 58°03' E 006°59'0 0.0
2018-Aug-06 13:22N 58°03' E 006°59'0 0.0
2018-Aug-06 09:58N 58°03' E 006°59'0 0.0
2018-Aug-06 09:28N 58°03' E 006°59'0 0.0
2018-Aug-06 08:43N 58°03' E 006°59'0 0.0
2018-Aug-06 07:37N 58°03' E 006°59'0 0.0
2018-Aug-06 06:49N 58°03' E 006°59'0 0.0
2018-Aug-06 06:16N 58°03' E 006°59'0 0.0
2018-Aug-06 05:58N 58°03' E 006°59'0 0.0
2018-Aug-06 05:28N 58°03' E 006°59'0 0.0
2018-Aug-06 04:58N 58°03' E 006°59'0 0.0
2018-Aug-06 03:10N 58°03' E 006°59'0 0.0
2018-Aug-06 02:58N 58°03' E 006°59'0 0.0
2018-Aug-06 02:22N 58°03' E 006°59'0 0.0
2018-Aug-06 01:58N 58°03' E 006°59'0 0.0
2018-Aug-06 01:28N 58°03' E 006°59'0 0.0
2018-Aug-06 00:58N 58°03' E 006°59'0 0.0
2018-Aug-05 23:34N 58°03' E 006°59'0 0.0
2018-Aug-05 23:28N 58°03' E 006°59'0 0.0
2018-Aug-05 22:58N 58°03' E 006°59'0 0.0
2018-Aug-05 22:22N 58°03' E 006°59'0 0.0
2018-Aug-05 14:55N 58°03' E 006°59'0 0.0
2018-Aug-05 12:46N 58°03' E 006°59'0 0.0
2018-Aug-05 12:10N 58°03' E 006°59'0 0.0
2018-Aug-05 11:52N 58°03' E 006°59'0 0.0
2018-Aug-05 11:25N 58°03' E 006°59'0 0.0
2018-Aug-05 10:46N 58°03' E 006°59'0 0.0
2018-Aug-05 10:16N 58°03' E 006°59'0 0.0
2018-Aug-05 07:52N 58°03' E 006°59'0 0.0
2018-Aug-05 07:13N 58°03' E 006°59'0 0.0
2018-Aug-05 06:58N 58°03' E 006°59'0 0.0
2018-Aug-05 06:25N 58°03' E 006°59'0 0.0
2018-Aug-05 05:55N 58°03' E 006°59'0 0.0
2018-Aug-05 04:49N 58°03' E 006°59'0 0.0
2018-Aug-05 04:28N 58°03' E 006°59'0 0.0
2018-Aug-05 03:40N 58°03' E 006°59'0 0.0
2018-Aug-05 03:16N 58°03' E 006°59'0 0.0
2018-Aug-05 02:58N 58°03' E 006°59'0 0.0
2018-Aug-05 02:28N 58°03' E 006°59'0 0.0
2018-Aug-05 01:52N 58°03' E 006°59'0 0.0
2018-Aug-05 01:16N 58°03' E 006°59'0 0.0
2018-Aug-05 00:52N 58°03' E 006°59'0 0.0
2018-Aug-04 23:58N 58°03' E 006°59'0 0.0
2018-Aug-04 23:28N 58°03' E 006°59'0 0.0
2018-Aug-04 22:58N 58°03' E 006°59'0 0.0
2018-Aug-04 22:28N 58°03' E 006°59'0 0.0
2018-Aug-04 21:52N 58°03' E 006°59'0 0.0
2018-Aug-04 21:28N 58°03' E 006°59'0 0.0
2018-Aug-04 20:55N 58°03' E 006°59'0 0.0
2018-Aug-04 20:28N 58°03' E 006°59'0 0.0
2018-Aug-04 19:37N 58°03' E 006°59'0 0.0
2018-Aug-04 19:25N 58°03' E 006°59'0 0.0
2018-Aug-04 18:49N 58°03' E 006°59'0 0.0
2018-Aug-04 18:28N 58°03' E 006°59'0 0.0
2018-Aug-04 17:58N 58°03' E 006°59'0 0.0
2018-Aug-04 17:07N 58°03' E 006°59'0 0.0
2018-Aug-04 16:55N 58°03' E 006°59'0 0.0
2018-Aug-04 16:28N 58°03' E 006°59'0 0.0
2018-Aug-04 15:58N 58°03' E 006°59'0 0.0
2018-Aug-04 15:19N 58°03' E 006°59'0 0.0
2018-Aug-04 14:55N 58°03' E 006°59'0 0.0
2018-Aug-04 14:28N 58°03' E 006°59'0 0.0
2018-Aug-04 13:58N 58°03' E 006°59'0 0.0
2018-Aug-04 13:16N 58°03' E 006°59'0 0.0
2018-Aug-04 12:58N 58°03' E 006°59'10 1.9
2018-Aug-04 07:33N 57°54' E 007°07'1 6.2
2018-Aug-04 07:25N 57°53' E 007°08'  
Track history (hours):
 
Tides and Currents Weather Stations Pressure Air Temp Water Temp Dewpoint Dewpoint Depression Visibility Wind Speed Wind Dir Waves Ship Positions

Odin

Last reported at 2018-Aug-07 05:11 UTC. Time now 2018-Aug-16 08:46 UTC.
Position N 57°08' E 008°36'.
Warning: this ship's position is 9 days out of date.

Length 28 m; draft 3 m.

Type: Tug. MMSI: 219022300.

Date/timePositionNaut miles runAvg speedWind from/ knotsBaromVisibWave heightAir tempDewpointWater temp
2018-Aug-07 05:11N 57°08' E 008°36'66 5.3
2018-Aug-06 16:43N 57°54' E 007°08'1 5.6
2018-Aug-06 16:30N 57°54' E 007°06'3 5.7
2018-Aug-06 16:00N 57°56' E 007°02'3 5.5
2018-Aug-06 15:30N 57°58' E 006°58'2 4.7
2018-Aug-06 15:00N 58°00' E 006°55'2 4.9
2018-Aug-06 14:30N 58°02' E 006°58'1 2.2
2018-Aug-06 14:00N 58°03' E 006°59'0 0.0
2018-Aug-06 13:22N 58°03' E 006°59'0 0.0
2018-Aug-06 09:58N 58°03' E 006°59'0 0.0
2018-Aug-06 09:28N 58°03' E 006°59'0 0.0
2018-Aug-06 08:43N 58°03' E 006°59'0 0.0
2018-Aug-06 07:37N 58°03' E 006°59'0 0.0
2018-Aug-06 06:49N 58°03' E 006°59'0 0.0
2018-Aug-06 06:16N 58°03' E 006°59'0 0.0
2018-Aug-06 05:58N 58°03' E 006°59'0 0.0
2018-Aug-06 05:28N 58°03' E 006°59'0 0.0
2018-Aug-06 04:58N 58°03' E 006°59'0 0.0
2018-Aug-06 03:10N 58°03' E 006°59'0 0.0
2018-Aug-06 02:58N 58°03' E 006°59'0 0.0
2018-Aug-06 02:22N 58°03' E 006°59'0 0.0
2018-Aug-06 01:58N 58°03' E 006°59'0 0.0
2018-Aug-06 01:28N 58°03' E 006°59'0 0.0
2018-Aug-06 00:58N 58°03' E 006°59'0 0.0
2018-Aug-05 23:34N 58°03' E 006°59'0 0.0
2018-Aug-05 23:28N 58°03' E 006°59'0 0.0
2018-Aug-05 22:58N 58°03' E 006°59'0 0.0
2018-Aug-05 22:22N 58°03' E 006°59'0 0.0
2018-Aug-05 14:55N 58°03' E 006°59'0 0.0
2018-Aug-05 12:46N 58°03' E 006°59'0 0.0
2018-Aug-05 12:10N 58°03' E 006°59'0 0.0
2018-Aug-05 11:52N 58°03' E 006°59'0 0.0
2018-Aug-05 11:25N 58°03' E 006°59'0 0.0
2018-Aug-05 10:46N 58°03' E 006°59'0 0.0
2018-Aug-05 10:16N 58°03' E 006°59'0 0.0
2018-Aug-05 07:52N 58°03' E 006°59'0 0.0
2018-Aug-05 07:13N 58°03' E 006°59'0 0.0
2018-Aug-05 06:58N 58°03' E 006°59'0 0.0
2018-Aug-05 06:25N 58°03' E 006°59'0 0.0
2018-Aug-05 05:55N 58°03' E 006°59'0 0.0
2018-Aug-05 04:49N 58°03' E 006°59'0 0.0
2018-Aug-05 04:28N 58°03' E 006°59'0 0.0
2018-Aug-05 03:40N 58°03' E 006°59'0 0.0
2018-Aug-05 03:16N 58°03' E 006°59'0 0.0
2018-Aug-05 02:58N 58°03' E 006°59'0 0.0
2018-Aug-05 02:28N 58°03' E 006°59'0 0.0
2018-Aug-05 01:52N 58°03' E 006°59'0 0.0
2018-Aug-05 01:16N 58°03' E 006°59'0 0.0
2018-Aug-05 00:52N 58°03' E 006°59'0 0.0
2018-Aug-04 23:58N 58°03' E 006°59'0 0.0
2018-Aug-04 23:28N 58°03' E 006°59'0 0.0
2018-Aug-04 22:58N 58°03' E 006°59'0 0.0
2018-Aug-04 22:28N 58°03' E 006°59'0 0.0
2018-Aug-04 21:52N 58°03' E 006°59'0 0.0
2018-Aug-04 21:28N 58°03' E 006°59'0 0.0
2018-Aug-04 20:55N 58°03' E 006°59'0 0.0
2018-Aug-04 20:28N 58°03' E 006°59'0 0.0
2018-Aug-04 19:37N 58°03' E 006°59'0 0.0
2018-Aug-04 19:25N 58°03' E 006°59'0 0.0
2018-Aug-04 18:49N 58°03' E 006°59'0 0.0
2018-Aug-04 18:28N 58°03' E 006°59'0 0.0
2018-Aug-04 17:58N 58°03' E 006°59'0 0.0
2018-Aug-04 17:07N 58°03' E 006°59'0 0.0
2018-Aug-04 16:55N 58°03' E 006°59'0 0.0
2018-Aug-04 16:28N 58°03' E 006°59'0 0.0
2018-Aug-04 15:58N 58°03' E 006°59'0 0.0
2018-Aug-04 15:19N 58°03' E 006°59'0 0.0
2018-Aug-04 14:55N 58°03' E 006°59'0 0.0
2018-Aug-04 14:28N 58°03' E 006°59'0 0.0
2018-Aug-04 13:58N 58°03' E 006°59'0 0.0
2018-Aug-04 13:16N 58°03' E 006°59'0 0.0
2018-Aug-04 12:58N 58°03' E 006°59'10 1.9
2018-Aug-04 07:33N 57°54' E 007°07'1 6.2
2018-Aug-04 07:25N 57°53' E 007°08'  

Dump ship's entire track history